Griffithville, Arkansas
Current Conditions -  °F | °C
As of 3:56 AM on Thursday 23 Oct 2014 (Local Time) from KSRC Reporting Station
Clear Clear  
Wind Chill:   Ceiling: Unl
Heat Index:   Visibility: 10mi
Dew Point:   Wind: 0mph
Humidity: 97%   Direction: NA
Pressure: 30.2"   Gusts: NA
Location:  35.12°N, 91.65°W
Report Text: KSRC 230856Z AUTO 00000KT 10SM CLR 06/06 A3020 RMK AO2 SLP232 T00610056 56005 TSNO
Loading
Personal Weather Stations






























Interactive Weather Map
Tropical Storm Tracking
New forecast layout! Learn more

10-Day Weather Forecast

Advertisements
Track Severe Weather on mobile